TimeCDT,TemperatureF,Dew PointF,Humidity,Sea Level PressureIn,VisibilityMPH,Wind Direction,Wind SpeedMPH,Gust SpeedMPH,PrecipitationIn,Events,Conditions,WindDirDegrees,DateUTC
12:52 AM,87.1,60.1,40,29.88,10.0,South,4.6,-,N/A,,Clear,180,2013-08-06 05:52:00
1:52 AM,89.1,63.0,42,29.88,10.0,South,17.3,-,N/A,,Clear,180,2013-08-06 06:52:00
2:52 AM,87.1,64.9,48,29.88,10.0,South,13.8,-,N/A,,Clear,190,2013-08-06 07:52:00
3:52 AM,86.0,64.0,48,29.87,10.0,South,13.8,-,N/A,,Clear,180,2013-08-06 08:52:00
4:52 AM,84.9,64.9,51,29.88,10.0,South,11.5,-,N/A,,Clear,180,2013-08-06 09:52:00
5:52 AM,82.9,66.0,56,29.87,10.0,South,11.5,-,N/A,,Clear,180,2013-08-06 10:52:00
6:15 AM,82.4,66.2,58,29.93,10.0,South,11.5,-,N/A,,Clear,170,2013-08-06 11:15:00
6:52 AM,82.0,66.9,60,29.89,10.0,South,9.2,-,N/A,,Clear,180,2013-08-06 11:52:00
7:52 AM,82.9,66.9,58,29.90,10.0,South,11.5,-,N/A,,Clear,180,2013-08-06 12:52:00
8:52 AM,87.1,68.0,53,29.90,10.0,South,9.2,-,N/A,,Clear,190,2013-08-06 13:52:00
9:52 AM,91.9,64.0,39,29.90,10.0,SSW,13.8,23.0,N/A,,Clear,210,2013-08-06 14:52:00
10:52 AM,96.1,62.1,32,29.90,10.0,South,11.5,-,N/A,,Partly Cloudy,190,2013-08-06 15:52:00
11:52 AM,99.0,62.1,30,29.90,10.0,SSW,11.5,20.7,N/A,,Clear,200,2013-08-06 16:52:00
12:52 PM,102.0,60.1,25,29.88,10.0,South,16.1,25.3,N/A,,Clear,190,2013-08-06 17:52:00
1:52 PM,104.0,61.0,24,29.86,10.0,South,12.7,24.2,N/A,,Clear,180,2013-08-06 18:52:00
2:52 PM,105.1,59.0,22,29.85,10.0,South,15.0,25.3,N/A,,Partly Cloudy,180,2013-08-06 19:52:00
3:52 PM,106.0,59.0,21,29.83,10.0,South,12.7,28.8,N/A,,Partly Cloudy,190,2013-08-06 20:52:00
4:52 PM,104.0,60.1,24,29.81,10.0,South,11.5,24.2,N/A,,Partly Cloudy,170,2013-08-06 21:52:00
5:52 PM,105.1,57.9,21,29.80,10.0,South,17.3,-,N/A,,Clear,170,2013-08-06 22:52:00
6:52 PM,102.9,55.0,20,29.79,10.0,SSE,12.7,19.6,N/A,,Clear,160,2013-08-06 23:52:00
7:52 PM,100.0,59.0,26,29.78,10.0,SSE,11.5,20.7,N/A,,Clear,160,2013-08-07 00:52:00
8:52 PM,98.1,61.0,29,29.79,10.0,SSE,11.5,-,N/A,,Clear,150,2013-08-07 01:52:00
9:52 PM,96.1,61.0,31,29.83,10.0,SSE,8.1,-,N/A,,Clear,150,2013-08-07 02:52:00
10:52 PM,95.0,60.1,31,29.84,10.0,SSE,9.2,-,N/A,,Clear,150,2013-08-07 03:52:00
11:52 PM,93.9,60.1,32,29.84,10.0,South,11.5,-,N/A,,Clear,170,2013-08-07 04:52:00